Terminal Aerodrome Forecast
Issued by NWS Bismarck, ND

Home | Current Version | Previous Version | Text Only | Print | Product List | Glossary Off
Versions: 1 2 3 4 5 6 7 8 9 10 11 12
000 FTUS43 KBIS 130539 TAFBIS TAF KBIS 130539Z 1306/1406 15005KT P6SM SCT090 SCT200 FM131600 19008KT P6SM SCT070 FM140200 VRB04KT P6SM FEW070=

USA.gov is the U.S. government's official web portal to all federal, state and local government web resources and services.